Satin, Texas
Current Conditions -  °F | °C
As of 7:35 PM on Thursday 27 Nov 2014 (Local Time) from KPWG Reporting Station
Clear Clear  
Wind Chill: 48°   Ceiling: Unl
Heat Index: 48°   Visibility: 10mi
Dew Point: 25°   Wind: 3mph
Humidity: 40%   Direction: 190°S
Pressure: 30.41"   Gusts: NA
Location:  31.35°N, 97.03°W
Report Text: KPWG 280135Z AUTO 19003KT 10SM CLR 09/M04 A3041 RMK AO1
Loading
Personal Weather Stations






























Interactive Weather Map New forecast layout! Learn more

10-Day Weather Forecast

Advertisements
Track Severe Weather on mobile